Powersite, Missouri
Current Conditions -  °F | °C
As of 8:47 AM on Sunday 23 Nov 2014 (Local Time) from KBBG Reporting Station
Overcast Overcast  
Wind Chill: 55°   Ceiling: 600
Heat Index: 55°   Visibility: 7mi
Dew Point: 54°   Wind: 7mph
Humidity: 94%   Direction: 160°SSE
Pressure: 29.59"   Gusts: NA
Location:  36.66°N, 93.12°W
Report Text: KBBG 231447Z 16006KT 7SM OVC006 13/12 A2959
Loading
Personal Weather Stations






























Interactive Weather Map New forecast layout! Learn more

10-Day Weather Forecast

Advertisements
Track Severe Weather on mobile